Time;durP1;ratioP1;P1;durP2;ratioP2;P2;SDS_P1;SDS_P2;PMS_P1;PMS_P2;Temp;Humidity;BMP_temperature;BMP_pressure;BME280_temperature;BME280_humidity;BME280_pressure;Samples;Min_cycle;Max_cycle;Signal;HPM_P1;HPM_P2
2022/11/27 00:00:07;;;;;;;;;;;4.30;73.20;;;;;;5043718;28;87296;-40
2022/11/27 00:02:32;;;;;;;;;;;4.30;73.10;;;;;;5044141;28;86373;-39
2022/11/27 00:04:58;;;;;;;;;;;4.30;73.20;;;;;;5043646;28;87001;-39
2022/11/27 00:07:23;;;;;;;;;;;4.20;73.30;;;;;;5043649;28;88079;-39
2022/11/27 00:09:49;;;;;;;;;;;4.20;73.30;;;;;;5043060;28;88076;-39
2022/11/27 00:12:14;;;;;;;;;;;4.30;73.10;;;;;;5046381;28;88389;-39
2022/11/27 00:14:40;;;;;;;;;;;4.20;73.30;;;;;;5043936;28;87020;-39
2022/11/27 00:17:05;;;;;;;;;;;4.30;73.30;;;;;;5043950;28;87402;-39
2022/11/27 00:19:32;;;;;;;;;;;4.30;73.10;;;;;;5043399;28;88045;-39
2022/11/27 00:21:57;;;;;;;;;;;4.20;73.10;;;;;;5043714;28;86945;-39
2022/11/27 00:24:22;;;;;;;;;;;4.20;73.10;;;;;;5043820;28;87466;-39
2022/11/27 00:26:48;;;;;;;;;;;4.20;73.10;;;;;;5044008;28;87444;-39
2022/11/27 00:29:14;;;;;;;;;;;4.20;73.10;;;;;;5043296;28;87136;-39
2022/11/27 00:31:39;;;;;;;;;;;4.20;73.10;;;;;;5043539;27;86945;-39
2022/11/27 00:34:07;;;;;;;;;;;4.20;73.30;;;;;;5045251;28;88984;-39
2022/11/27 00:36:33;;;;;;;;;;;4.20;73.20;;;;;;5043445;28;88353;-39
2022/11/27 00:38:58;;;;;;;;;;;4.10;73.70;;;;;;5043250;28;87933;-39
2022/11/27 00:41:25;;;;;;;;;;;4.10;73.10;;;;;;5042916;28;87129;-39
2022/11/27 00:43:51;;;;;;;;;;;4.10;73.20;;;;;;5043631;27;87643;-39
2022/11/27 00:46:18;;;;;;;;;;;4.10;73.30;;;;;;5042897;28;87204;-39
2022/11/27 00:48:44;;;;;;;;;;;4.10;73.30;;;;;;5042939;28;87159;-39
2022/11/27 00:51:10;;;;;;;;;;;4.10;73.30;;;;;;5043762;27;87064;-39
2022/11/27 00:53:36;;;;;;;;;;;4.10;73.20;;;;;;5042818;28;88249;-39
2022/11/27 00:56:02;;;;;;;;;;;4.10;73.20;;;;;;5046234;28;87095;-39
2022/11/27 00:58:29;;;;;;;;;;;4.10;73.30;;;;;;5042473;28;89075;-39
2022/11/27 01:00:55;;;;;;;;;;;4.10;73.40;;;;;;5043275;28;87139;-39
2022/11/27 01:03:20;;;;;;;;;;;4.10;73.30;;;;;;5042646;27;90662;-39
2022/11/27 01:05:46;;;;;;;;;;;4.10;73.20;;;;;;5042814;28;87479;-39
2022/11/27 01:08:11;;;;;;;;;;;4.10;73.30;;;;;;5043229;28;87250;-39
2022/11/27 01:10:37;;;;;;;;;;;4.10;73.30;;;;;;5042975;28;87395;-39
2022/11/27 01:13:02;;;;;;;;;;;4.10;73.30;;;;;;5042651;28;88285;-39
2022/11/27 01:15:28;;;;;;;;;;;4.10;73.20;;;;;;5043531;28;86724;-39
2022/11/27 01:17:53;;;;;;;;;;;4.00;73.30;;;;;;5045518;27;88184;-39
2022/11/27 01:20:19;;;;;;;;;;;4.00;73.40;;;;;;5042676;28;87203;-39
2022/11/27 01:22:44;;;;;;;;;;;4.00;73.30;;;;;;5042520;28;88607;-39
2022/11/27 01:25:10;;;;;;;;;;;4.00;73.20;;;;;;5042640;28;87823;-39
2022/11/27 01:27:35;;;;;;;;;;;4.00;73.30;;;;;;5042940;28;87152;-39
2022/11/27 01:30:01;;;;;;;;;;;4.00;73.40;;;;;;5041333;28;88852;-39
2022/11/27 01:32:26;;;;;;;;;;;4.00;73.30;;;;;;5042431;28;87931;-39
2022/11/27 01:34:52;;;;;;;;;;;4.00;73.30;;;;;;5042566;28;87163;-39
2022/11/27 01:37:17;;;;;;;;;;;4.00;73.40;;;;;;5042634;28;88208;-39
2022/11/27 01:39:43;;;;;;;;;;;4.00;73.30;;;;;;5045701;28;87241;-39
2022/11/27 01:42:09;;;;;;;;;;;3.90;73.30;;;;;;5042561;28;87158;-39
2022/11/27 01:44:35;;;;;;;;;;;3.90;73.40;;;;;;5041486;28;87716;-39
2022/11/27 01:47:02;;;;;;;;;;;3.90;73.40;;;;;;5041866;28;88105;-39
2022/11/27 01:49:27;;;;;;;;;;;3.90;73.30;;;;;;5042298;27;87797;-39
2022/11/27 01:52:04;;;;;;;;;;;3.90;73.40;;;;;;5041421;27;88278;-39
2022/11/27 01:54:42;;;;;;;;;;;3.90;73.40;;;;;;5041977;28;87108;-39
2022/11/27 01:57:11;;;;;;;;;;;3.90;73.50;;;;;;5042680;27;87057;-39
2022/11/27 01:59:37;;;;;;;;;;;3.90;73.50;;;;;;5041998;28;88712;-39
2022/11/27 02:02:02;;;;;;;;;;;3.90;73.40;;;;;;5045023;28;88262;-39
2022/11/27 02:04:28;;;;;;;;;;;3.90;73.40;;;;;;5042444;28;87493;-39
2022/11/27 02:06:55;;;;;;;;;;;3.90;73.40;;;;;;5042484;28;87288;-39
2022/11/27 02:09:20;;;;;;;;;;;3.80;73.50;;;;;;5042099;27;87348;-39
2022/11/27 02:11:49;;;;;;;;;;;3.80;73.50;;;;;;5041137;28;88841;-39
2022/11/27 02:14:32;;;;;;;;;;;3.80;73.50;;;;;;5042383;28;87162;-39
2022/11/27 02:17:04;;;;;;;;;;;3.80;73.60;;;;;;5042220;27;87584;-39
2022/11/27 02:19:36;;;;;;;;;;;3.80;73.70;;;;;;5041611;28;88245;-39
2022/11/27 02:22:10;;;;;;;;;;;3.80;73.50;;;;;;5045081;28;86918;-39
2022/11/27 02:24:35;;;;;;;;;;;3.80;73.60;;;;;;5041609;28;88093;-39
2022/11/27 02:27:10;;;;;;;;;;;3.80;73.60;;;;;;5041793;28;87103;-39
2022/11/27 02:29:35;;;;;;;;;;;3.80;73.60;;;;;;5042648;27;87331;-39
2022/11/27 02:32:24;;;;;;;;;;;3.70;73.70;;;;;;5041313;28;89369;-39
2022/11/27 02:35:11;;;;;;;;;;;3.70;73.70;;;;;;5021346;28;87203;-39
2022/11/27 02:37:40;;;;;;;;;;;3.70;73.80;;;;;;5041341;28;87973;-39
2022/11/27 02:40:19;;;;;;;;;;;3.70;73.90;;;;;;5041722;28;88171;-39
2022/11/27 02:43:04;;;;;;;;;;;3.70;73.80;;;;;;5041980;28;86926;-39
2022/11/27 02:45:37;;;;;;;;;;;3.70;73.70;;;;;;5043869;27;87060;-39
2022/11/27 02:48:04;;;;;;;;;;;3.70;73.70;;;;;;5041330;28;87042;-39
2022/11/27 02:50:31;;;;;;;;;;;3.70;73.80;;;;;;5041405;27;87168;-39
2022/11/27 02:52:59;;;;;;;;;;;3.70;73.70;;;;;;5041214;28;88245;-39
2022/11/27 02:55:26;;;;;;;;;;;3.70;73.70;;;;;;5041934;28;86442;-39
2022/11/27 02:57:53;;;;;;;;;;;3.60;73.70;;;;;;5041544;27;87038;-39
2022/11/27 03:00:18;;;;;;;;;;;3.60;73.70;;;;;;5041127;28;87919;-39
2022/11/27 03:02:46;;;;;;;;;;;3.60;73.70;;;;;;5041109;27;88073;-39
2022/11/27 03:05:14;;;;;;;;;;;3.60;73.60;;;;;;5044952;27;88272;-39
2022/11/27 03:07:42;;;;;;;;;;;3.70;73.70;;;;;;5047348;28;88105;-39
2022/11/27 03:10:11;;;;;;;;;;;3.70;73.80;;;;;;5044896;27;87290;-39
2022/11/27 03:12:37;;;;;;;;;;;3.60;73.70;;;;;;5044301;28;89365;-39
2022/11/27 03:15:03;;;;;;;;;;;3.60;73.70;;;;;;5044599;28;87023;-39
2022/11/27 03:17:31;;;;;;;;;;;3.60;73.70;;;;;;5044736;27;88418;-39
2022/11/27 03:19:59;;;;;;;;;;;3.60;73.80;;;;;;5045099;28;87254;-39
2022/11/27 03:22:27;;;;;;;;;;;3.60;74.00;;;;;;5044905;28;87206;-39
2022/11/27 03:24:53;;;;;;;;;;;3.50;73.90;;;;;;5044790;27;87366;-39
2022/11/27 03:27:21;;;;;;;;;;;3.50;74.00;;;;;;5043591;28;89193;-39
2022/11/27 03:30:06;;;;;;;;;;;3.50;73.90;;;;;;5047107;28;88032;-39
2022/11/27 03:32:32;;;;;;;;;;;3.50;73.80;;;;;;5044281;28;90048;-39
2022/11/27 03:34:58;;;;;;;;;;;3.50;73.80;;;;;;5044662;28;86913;-39
2022/11/27 03:37:24;;;;;;;;;;;3.60;73.90;;;;;;5044303;27;88865;-39
2022/11/27 03:39:50;;;;;;;;;;;3.50;73.80;;;;;;5044274;28;88026;-39
2022/11/27 03:42:18;;;;;;;;;;;3.50;73.80;;;;;;5044124;28;87096;-39
2022/11/27 03:45:02;;;;;;;;;;;3.50;73.80;;;;;;5044386;27;87430;-39
2022/11/27 03:47:50;;;;;;;;;;;3.50;74.10;;;;;;5044073;27;88067;-39
2022/11/27 03:50:16;;;;;;;;;;;3.50;74.00;;;;;;5044331;28;86986;-39
2022/11/27 03:53:07;;;;;;;;;;;3.40;74.10;;;;;;5046075;27;87985;-39
2022/11/27 03:55:32;;;;;;;;;;;3.50;74.00;;;;;;5044526;28;86981;-39
2022/11/27 03:58:00;;;;;;;;;;;3.40;74.00;;;;;;5044185;27;87524;-39
2022/11/27 04:00:27;;;;;;;;;;;3.50;74.00;;;;;;5043614;28;88103;-39
2022/11/27 04:02:52;;;;;;;;;;;3.40;74.10;;;;;;5044125;28;87059;-39
2022/11/27 04:05:18;;;;;;;;;;;3.40;74.20;;;;;;5043783;28;87427;-39
2022/11/27 04:07:44;;;;;;;;;;;3.40;74.00;;;;;;5043435;28;89546;-39
2022/11/27 04:10:10;;;;;;;;;;;3.40;74.30;;;;;;5044513;28;86388;-39
2022/11/27 04:12:35;;;;;;;;;;;3.40;74.30;;;;;;5043614;28;87959;-39
2022/11/27 04:15:01;;;;;;;;;;;3.40;74.20;;;;;;5045971;27;88186;-39
2022/11/27 04:17:27;;;;;;;;;;;3.40;74.10;;;;;;5043362;27;87795;-39
2022/11/27 04:19:52;;;;;;;;;;;3.40;74.00;;;;;;5043149;28;88163;-39
2022/11/27 04:22:18;;;;;;;;;;;3.40;74.00;;;;;;5043663;28;87521;-39
2022/11/27 04:24:43;;;;;;;;;;;3.40;74.60;;;;;;5043792;28;86964;-39
2022/11/27 04:27:09;;;;;;;;;;;3.40;73.90;;;;;;5043461;28;88307;-39
2022/11/27 04:29:37;;;;;;;;;;;3.40;74.10;;;;;;5043610;28;87055;-39
2022/11/27 04:32:03;;;;;;;;;;;3.40;74.20;;;;;;5043695;27;87364;-39
2022/11/27 04:34:28;;;;;;;;;;;3.30;74.20;;;;;;5046546;28;87370;-39
2022/11/27 04:36:54;;;;;;;;;;;3.30;74.40;;;;;;5043473;28;87064;-39
2022/11/27 04:39:19;;;;;;;;;;;3.30;74.40;;;;;;5043163;28;88158;-39
2022/11/27 04:41:45;;;;;;;;;;;3.30;74.50;;;;;;5042903;28;88191;-39
2022/11/27 04:44:11;;;;;;;;;;;3.20;74.50;;;;;;5042718;27;90806;-39
2022/11/27 04:46:36;;;;;;;;;;;3.30;74.60;;;;;;5043358;28;87740;-39
2022/11/27 04:49:02;;;;;;;;;;;3.30;74.60;;;;;;5043399;28;87146;-39
2022/11/27 04:51:27;;;;;;;;;;;3.20;74.50;;;;;;5043136;27;87373;-39
2022/11/27 04:53:53;;;;;;;;;;;3.20;74.50;;;;;;5042814;28;88198;-39
2022/11/27 04:56:18;;;;;;;;;;;3.30;74.70;;;;;;5045897;28;86987;-39
2022/11/27 04:58:44;;;;;;;;;;;3.20;74.50;;;;;;5043596;28;87276;-39
2022/11/27 05:01:09;;;;;;;;;;;3.20;74.50;;;;;;5043247;28;87165;-39
2022/11/27 05:03:35;;;;;;;;;;;3.30;74.50;;;;;;5043372;28;87450;-39
2022/11/27 05:06:01;;;;;;;;;;;3.20;74.50;;;;;;5041934;28;88984;-39
2022/11/27 05:08:28;;;;;;;;;;;3.20;74.70;;;;;;5043017;28;87284;-39
2022/11/27 05:10:59;;;;;;;;;;;3.20;74.50;;;;;;5043055;28;86972;-39
2022/11/27 05:13:25;;;;;;;;;;;3.20;74.60;;;;;;5042246;28;89142;-39
2022/11/27 05:15:50;;;;;;;;;;;3.20;74.60;;;;;;5043138;28;87210;-39
2022/11/27 05:18:16;;;;;;;;;;;3.20;74.50;;;;;;5045590;28;87145;-39
2022/11/27 05:20:41;;;;;;;;;;;3.20;74.70;;;;;;5042803;28;86921;-39
2022/11/27 05:23:07;;;;;;;;;;;3.20;74.50;;;;;;5043597;28;87382;-39
2022/11/27 05:25:32;;;;;;;;;;;3.20;74.60;;;;;;5042505;28;87997;-39
2022/11/27 05:27:58;;;;;;;;;;;3.20;74.70;;;;;;5041545;27;87132;-39
2022/11/27 05:30:23;;;;;;;;;;;3.20;74.60;;;;;;5041914;28;87984;-39
2022/11/27 05:32:49;;;;;;;;;;;3.20;74.60;;;;;;5042442;28;87320;-39
2022/11/27 05:35:14;;;;;;;;;;;3.20;74.80;;;;;;5042562;28;87143;-39
2022/11/27 05:37:40;;;;;;;;;;;3.20;74.50;;;;;;5042723;28;87264;-39
2022/11/27 05:40:05;;;;;;;;;;;3.20;74.70;;;;;;5045275;28;88028;-39
2022/11/27 05:42:31;;;;;;;;;;;3.20;74.70;;;;;;5042758;28;87468;-39
2022/11/27 05:44:56;;;;;;;;;;;3.20;74.60;;;;;;5041791;28;88057;-39
2022/11/27 05:47:22;;;;;;;;;;;3.10;74.60;;;;;;5043142;28;86509;-39
2022/11/27 05:49:47;;;;;;;;;;;3.10;74.70;;;;;;5042238;28;87113;-39
2022/11/27 05:52:13;;;;;;;;;;;3.10;74.60;;;;;;5042132;28;88093;-39
2022/11/27 05:54:38;;;;;;;;;;;3.10;74.70;;;;;;5041656;28;88045;-39
2022/11/27 05:57:04;;;;;;;;;;;3.10;74.70;;;;;;5042533;27;87332;-39
2022/11/27 05:59:29;;;;;;;;;;;3.10;74.60;;;;;;5041937;28;88141;-39
2022/11/27 06:01:55;;;;;;;;;;;3.10;74.80;;;;;;5045220;28;87257;-39
2022/11/27 06:04:20;;;;;;;;;;;3.10;74.80;;;;;;5041721;28;88140;-39
2022/11/27 06:06:46;;;;;;;;;;;3.10;74.70;;;;;;5042266;28;87212;-39
2022/11/27 06:09:12;;;;;;;;;;;3.10;74.60;;;;;;5042014;28;87920;-39
2022/11/27 06:11:37;;;;;;;;;;;3.10;74.80;;;;;;5042231;28;88355;-39
2022/11/27 06:14:05;;;;;;;;;;;3.10;74.70;;;;;;5042162;28;87609;-39
2022/11/27 06:16:31;;;;;;;;;;;3.10;74.70;;;;;;5042119;28;87462;-39
2022/11/27 06:18:56;;;;;;;;;;;3.10;74.90;;;;;;5039449;28;92113;-39
2022/11/27 06:21:23;;;;;;;;;;;3.10;74.80;;;;;;5042011;28;87085;-39
2022/11/27 06:23:48;;;;;;;;;;;3.10;75.00;;;;;;5044248;27;88677;-39
2022/11/27 06:26:32;;;;;;;;;;;3.10;74.90;;;;;;5042130;28;87011;-39
2022/11/27 06:28:58;;;;;;;;;;;3.10;74.80;;;;;;5041952;28;87450;-39
2022/11/27 06:31:25;;;;;;;;;;;3.00;75.10;;;;;;5041583;28;88255;-39
2022/11/27 06:33:51;;;;;;;;;;;3.10;74.80;;;;;;5041890;28;87153;-39
2022/11/27 06:36:17;;;;;;;;;;;3.00;75.00;;;;;;5042676;27;87477;-39
2022/11/27 06:38:43;;;;;;;;;;;3.10;74.90;;;;;;5043149;27;87695;-39
2022/11/27 06:41:10;;;;;;;;;;;3.10;74.80;;;;;;5045443;28;87054;-39
2022/11/27 06:43:35;;;;;;;;;;;3.00;74.80;;;;;;5047610;28;88421;-39
2022/11/27 06:46:02;;;;;;;;;;;3.10;74.80;;;;;;5043721;28;87346;-39
2022/11/27 06:48:27;;;;;;;;;;;3.10;74.70;;;;;;5045314;28;87326;-39
2022/11/27 06:50:53;;;;;;;;;;;3.10;75.00;;;;;;5044870;28;87992;-39
2022/11/27 06:53:19;;;;;;;;;;;3.00;75.20;;;;;;5045257;28;87109;-39
2022/11/27 06:55:44;;;;;;;;;;;3.00;74.80;;;;;;5045370;27;87679;-39
2022/11/27 06:58:10;;;;;;;;;;;3.00;74.90;;;;;;5044956;28;88263;-39
2022/11/27 07:00:36;;;;;;;;;;;3.00;75.10;;;;;;5045888;28;87585;-39
2022/11/27 07:03:01;;;;;;;;;;;3.00;75.00;;;;;;5045276;28;86999;-39
2022/11/27 07:05:28;;;;;;;;;;;3.00;74.90;;;;;;5047865;28;88153;-39
2022/11/27 07:07:54;;;;;;;;;;;3.00;74.80;;;;;;5044382;27;87916;-39
2022/11/27 07:10:20;;;;;;;;;;;3.00;74.70;;;;;;5044627;28;88294;-39
2022/11/27 07:12:45;;;;;;;;;;;3.00;74.90;;;;;;5045423;28;87078;-39
2022/11/27 07:15:10;;;;;;;;;;;3.00;75.00;;;;;;5045096;28;87355;-39
2022/11/27 07:17:36;;;;;;;;;;;3.00;74.90;;;;;;5044506;28;88190;-39
2022/11/27 07:20:02;;;;;;;;;;;3.00;75.20;;;;;;5044872;28;87349;-39
2022/11/27 07:22:27;;;;;;;;;;;3.00;75.10;;;;;;5044906;27;87635;-39
2022/11/27 07:24:54;;;;;;;;;;;3.00;75.10;;;;;;5045142;28;86320;-39
2022/11/27 07:27:19;;;;;;;;;;;3.00;75.00;;;;;;5047646;28;87142;-39
2022/11/27 07:29:45;;;;;;;;;;;3.00;75.10;;;;;;5044552;28;87956;-39
2022/11/27 07:32:10;;;;;;;;;;;3.00;75.20;;;;;;5044155;28;88061;-39
2022/11/27 07:34:36;;;;;;;;;;;3.00;75.10;;;;;;5044596;28;88168;-39
2022/11/27 07:37:01;;;;;;;;;;;3.00;75.30;;;;;;5044657;28;88117;-39
2022/11/27 07:39:27;;;;;;;;;;;3.00;75.10;;;;;;5044745;28;87112;-39
2022/11/27 07:41:52;;;;;;;;;;;3.00;75.10;;;;;;5044458;27;88720;-39
2022/11/27 07:44:18;;;;;;;;;;;3.00;75.20;;;;;;5044106;28;88161;-39
2022/11/27 07:46:43;;;;;;;;;;;2.90;75.10;;;;;;5044738;28;86943;-39
2022/11/27 07:49:09;;;;;;;;;;;2.90;75.30;;;;;;5047196;27;88890;-39
2022/11/27 07:51:35;;;;;;;;;;;2.90;75.10;;;;;;5043489;28;87148;-39
2022/11/27 07:54:01;;;;;;;;;;;2.90;75.30;;;;;;5044175;28;87517;-39
2022/11/27 07:56:26;;;;;;;;;;;3.00;75.20;;;;;;5043594;28;89472;-39
2022/11/27 07:58:52;;;;;;;;;;;2.90;75.40;;;;;;5044592;28;87109;-39
2022/11/27 08:01:18;;;;;;;;;;;2.90;75.30;;;;;;5044681;28;87827;-39
2022/11/27 08:03:43;;;;;;;;;;;2.90;75.30;;;;;;5043889;28;88112;-39
2022/11/27 08:06:16;;;;;;;;;;;2.90;75.70;;;;;;5044272;28;87308;-39
2022/11/27 08:08:42;;;;;;;;;;;2.90;75.20;;;;;;5044300;28;87650;-39
2022/11/27 08:11:22;;;;;;;;;;;2.90;75.30;;;;;;5046849;28;88014;-39
2022/11/27 08:13:48;;;;;;;;;;;2.90;75.80;;;;;;5044735;27;86512;-39
2022/11/27 08:16:14;;;;;;;;;;;2.90;75.40;;;;;;5043654;28;88268;-39
2022/11/27 08:18:39;;;;;;;;;;;2.90;75.40;;;;;;5043827;28;86995;-39
2022/11/27 08:21:05;;;;;;;;;;;2.90;75.30;;;;;;5043645;28;87948;-39
2022/11/27 08:23:30;;;;;;;;;;;2.90;75.30;;;;;;5043680;28;88055;-39
2022/11/27 08:25:56;;;;;;;;;;;2.90;75.40;;;;;;5044106;28;88166;-39
2022/11/27 08:28:21;;;;;;;;;;;2.90;75.50;;;;;;5044004;28;87401;-39
2022/11/27 08:30:57;;;;;;;;;;;2.90;75.50;;;;;;5043390;28;88139;-39
2022/11/27 08:33:23;;;;;;;;;;;2.90;75.40;;;;;;5046994;28;86907;-39
2022/11/27 08:35:49;;;;;;;;;;;2.90;75.50;;;;;;5043519;28;87843;-39
2022/11/27 08:38:14;;;;;;;;;;;2.90;75.50;;;;;;5044344;28;86361;-39
2022/11/27 08:40:40;;;;;;;;;;;2.90;75.40;;;;;;5043554;28;87008;-39
2022/11/27 08:43:05;;;;;;;;;;;2.90;75.40;;;;;;5043186;28;88177;-39
2022/11/27 08:45:31;;;;;;;;;;;2.90;75.50;;;;;;5042289;28;88194;-39
2022/11/27 08:47:57;;;;;;;;;;;2.90;75.60;;;;;;5043323;27;89644;-39
2022/11/27 08:50:23;;;;;;;;;;;2.90;75.40;;;;;;5043064;28;88090;-39
2022/11/27 08:52:48;;;;;;;;;;;2.90;75.60;;;;;;5046472;28;87121;-39
2022/11/27 08:55:14;;;;;;;;;;;2.90;75.70;;;;;;5042780;28;87963;-39
2022/11/27 08:57:39;;;;;;;;;;;2.90;75.70;;;;;;5043306;28;87131;-39
2022/11/27 09:00:05;;;;;;;;;;;2.90;75.60;;;;;;5043400;28;87839;-39
2022/11/27 09:02:31;;;;;;;;;;;2.90;75.60;;;;;;5043342;27;88506;-39
2022/11/27 09:04:57;;;;;;;;;;;2.90;75.70;;;;;;5043614;28;87141;-39
2022/11/27 09:07:22;;;;;;;;;;;2.90;75.60;;;;;;5043756;28;87552;-39
2022/11/27 09:09:48;;;;;;;;;;;2.90;75.70;;;;;;5042378;28;88948;-39
2022/11/27 09:12:13;;;;;;;;;;;2.90;75.70;;;;;;5043673;28;87151;-39
2022/11/27 09:14:39;;;;;;;;;;;2.90;75.50;;;;;;5045869;28;87091;-39
2022/11/27 09:17:05;;;;;;;;;;;2.90;75.60;;;;;;5043117;28;87203;-43
2022/11/27 09:19:30;;;;;;;;;;;2.90;75.70;;;;;;5043144;27;88011;-39
2022/11/27 09:21:56;;;;;;;;;;;2.90;75.70;;;;;;5043079;28;88167;-39
2022/11/27 09:24:21;;;;;;;;;;;2.90;75.70;;;;;;5043633;28;87133;-39
2022/11/27 09:26:47;;;;;;;;;;;2.80;75.70;;;;;;5043734;28;88537;-39
2022/11/27 09:29:12;;;;;;;;;;;2.90;75.80;;;;;;5042949;28;88032;-39
2022/11/27 09:31:38;;;;;;;;;;;2.90;75.90;;;;;;5043259;28;87075;-39
2022/11/27 09:34:04;;;;;;;;;;;2.90;75.70;;;;;;5042527;27;88029;-39
2022/11/27 09:36:29;;;;;;;;;;;2.90;75.90;;;;;;5045633;28;87714;-39
2022/11/27 09:38:57;;;;;;;;;;;2.90;75.80;;;;;;5043339;28;87014;-39
2022/11/27 09:41:43;;;;;;;;;;;2.90;76.30;;;;;;5042756;28;88111;-39
2022/11/27 09:44:11;;;;;;;;;;;2.90;76.00;;;;;;5042426;28;87016;-39
2022/11/27 09:46:38;;;;;;;;;;;2.90;76.00;;;;;;5043435;28;87512;-39
2022/11/27 09:49:06;;;;;;;;;;;2.90;76.00;;;;;;5042363;28;88197;-39
2022/11/27 09:51:38;;;;;;;;;;;2.90;76.10;;;;;;5043508;28;86623;-39
2022/11/27 09:54:07;;;;;;;;;;;2.90;76.10;;;;;;5041351;28;89652;-39
2022/11/27 09:56:33;;;;;;;;;;;2.90;76.10;;;;;;5042271;28;87920;-39
2022/11/27 09:58:59;;;;;;;;;;;2.80;76.00;;;;;;5045078;28;88065;-39
2022/11/27 10:01:26;;;;;;;;;;;2.90;76.10;;;;;;5042629;28;88045;-39
2022/11/27 10:03:52;;;;;;;;;;;2.80;76.10;;;;;;5042631;28;87120;-39
2022/11/27 10:06:32;;;;;;;;;;;2.80;76.20;;;;;;5042815;27;87368;-39
2022/11/27 10:09:06;;;;;;;;;;;2.80;76.60;;;;;;5042153;28;87932;-39
2022/11/27 10:12:01;;;;;;;;;;;2.90;76.30;;;;;;5042724;28;87095;-39
2022/11/27 10:14:50;;;;;;;;;;;2.90;76.40;;;;;;5032246;28;87464;-39
2022/11/27 10:17:21;;;;;;;;;;;2.90;76.30;;;;;;5036711;28;87420;-39
2022/11/27 10:20:05;;;;;;;;;;;2.90;76.30;;;;;;5042810;28;86997;-39
2022/11/27 10:22:37;;;;;;;;;;;2.90;76.30;;;;;;5045349;27;87409;-39
2022/11/27 10:25:02;;;;;;;;;;;2.90;76.30;;;;;;5040505;28;87837;-39
2022/11/27 10:27:31;;;;;;;;;;;2.90;76.20;;;;;;5042259;27;89460;-38
2022/11/27 10:29:58;;;;;;;;;;;2.90;76.30;;;;;;5041594;28;88209;-39
2022/11/27 10:32:25;;;;;;;;;;;2.90;76.30;;;;;;5042464;28;87139;-39
2022/11/27 10:35:01;;;;;;;;;;;2.90;76.40;;;;;;5042547;28;87470;-39
2022/11/27 10:37:29;;;;;;;;;;;2.90;76.40;;;;;;5041774;28;89330;-39
2022/11/27 10:40:01;;;;;;;;;;;2.90;76.40;;;;;;5042547;28;87225;-39
2022/11/27 10:42:33;;;;;;;;;;;2.90;76.40;;;;;;5044872;27;87386;-39
2022/11/27 10:45:04;;;;;;;;;;;2.90;76.60;;;;;;5042081;28;87085;-39
2022/11/27 10:47:30;;;;;;;;;;;2.90;76.50;;;;;;5042542;27;87077;-39
2022/11/27 10:49:56;;;;;;;;;;;2.90;76.30;;;;;;5041504;28;89281;-39
2022/11/27 10:52:22;;;;;;;;;;;2.90;76.30;;;;;;5042144;28;87122;-39
2022/11/27 10:54:56;;;;;;;;;;;2.90;76.50;;;;;;5041985;27;87367;-39
2022/11/27 10:57:27;;;;;;;;;;;2.90;76.40;;;;;;5041573;28;88225;-39
2022/11/27 10:59:53;;;;;;;;;;;2.90;76.50;;;;;;5041956;28;87026;-39
2022/11/27 11:02:26;;;;;;;;;;;2.90;76.50;;;;;;5042146;27;87455;-39
2022/11/27 11:04:51;;;;;;;;;;;2.90;76.50;;;;;;5044516;28;88040;-39
2022/11/27 11:07:25;;;;;;;;;;;2.90;76.50;;;;;;5042521;28;87240;-39
2022/11/27 11:09:51;;;;;;;;;;;2.90;76.60;;;;;;5041414;28;87624;-39
2022/11/27 11:12:19;;;;;;;;;;;2.90;76.60;;;;;;5041830;28;87123;-39
2022/11/27 11:14:55;;;;;;;;;;;2.90;76.60;;;;;;5041194;27;88323;-39
2022/11/27 11:17:24;;;;;;;;;;;2.90;77.20;;;;;;5041518;28;88072;-39
2022/11/27 11:19:50;;;;;;;;;;;2.90;76.60;;;;;;5041878;28;87095;-39
2022/11/27 11:22:15;;;;;;;;;;;2.90;76.50;;;;;;5041429;27;88706;-39
2022/11/27 11:24:48;;;;;;;;;;;2.90;76.50;;;;;;5041479;27;88033;-39
2022/11/27 11:27:16;;;;;;;;;;;2.90;76.40;;;;;;5047948;28;87119;-39
2022/11/27 11:29:52;;;;;;;;;;;2.90;76.50;;;;;;5044443;28;88073;-39
2022/11/27 11:32:25;;;;;;;;;;;2.90;76.70;;;;;;5045515;28;86388;-39
2022/11/27 11:34:52;;;;;;;;;;;2.90;76.80;;;;;;5044833;28;86893;-39
2022/11/27 11:37:30;;;;;;;;;;;2.90;76.70;;;;;;5044589;28;87969;-39
2022/11/27 11:40:16;;;;;;;;;;;2.90;76.60;;;;;;5044029;28;88084;-39
2022/11/27 11:42:59;;;;;;;;;;;2.90;76.60;;;;;;5044284;28;89731;-39
2022/11/27 11:45:25;;;;;;;;;;;2.90;76.70;;;;;;5043714;28;89505;-39
2022/11/27 11:47:54;;;;;;;;;;;2.90;76.80;;;;;;5044841;28;87095;-39
2022/11/27 11:50:29;;;;;;;;;;;2.90;76.80;;;;;;5047011;27;87361;-39
2022/11/27 11:53:03;;;;;;;;;;;2.90;76.90;;;;;;5044778;28;87139;-39
2022/11/27 11:55:31;;;;;;;;;;;2.90;76.80;;;;;;5044301;28;87393;-39
2022/11/27 11:58:20;;;;;;;;;;;2.90;76.80;;;;;;5044938;28;87376;-39
2022/11/27 12:00:47;;;;;;;;;;;2.90;76.70;;;;;;5024189;28;87002;-39
2022/11/27 12:03:24;;;;;;;;;;;2.90;76.90;;;;;;5044666;28;86857;-39
2022/11/27 12:05:59;;;;;;;;;;;2.90;76.90;;;;;;5043523;28;90542;-39
2022/11/27 12:08:40;;;;;;;;;;;2.90;77.00;;;;;;5044459;28;87094;-39
2022/11/27 12:11:12;;;;;;;;;;;2.90;77.10;;;;;;5044685;28;87344;-39
2022/11/27 12:13:38;;;;;;;;;;;2.90;76.90;;;;;;5046986;28;87989;-39
2022/11/27 12:16:05;;;;;;;;;;;2.90;76.80;;;;;;5042895;28;90503;-39
2022/11/27 12:18:48;;;;;;;;;;;2.90;76.90;;;;;;5043712;28;89450;-39
2022/11/27 12:21:14;;;;;;;;;;;2.90;77.00;;;;;;5044436;28;87131;-39
2022/11/27 12:23:48;;;;;;;;;;;2.90;77.00;;;;;;5044950;28;87173;-39
2022/11/27 12:26:32;;;;;;;;;;;2.90;77.10;;;;;;5044075;28;88028;-39
2022/11/27 12:29:00;;;;;;;;;;;2.90;77.10;;;;;;5044254;27;87214;-39
2022/11/27 12:31:35;;;;;;;;;;;2.90;77.50;;;;;;5043311;28;87679;-39
2022/11/27 12:34:19;;;;;;;;;;;3.00;76.80;;;;;;5043694;28;88057;-39
2022/11/27 12:36:48;;;;;;;;;;;2.90;76.70;;;;;;5046068;27;87166;-39
2022/11/27 12:39:16;;;;;;;;;;;2.90;76.90;;;;;;5043644;28;88171;-39
2022/11/27 12:42:00;;;;;;;;;;;2.90;76.90;;;;;;5043410;28;87110;-39
2022/11/27 12:44:34;;;;;;;;;;;2.90;77.00;;;;;;5043304;27;89140;-39
2022/11/27 12:47:02;;;;;;;;;;;2.90;77.00;;;;;;5043518;28;88121;-39
2022/11/27 12:49:33;;;;;;;;;;;2.90;77.00;;;;;;5044192;28;86155;-39
2022/11/27 12:51:58;;;;;;;;;;;2.90;77.00;;;;;;5043743;28;87467;-39
2022/11/27 12:54:24;;;;;;;;;;;2.90;77.20;;;;;;5042973;28;88095;-39
2022/11/27 12:56:53;;;;;;;;;;;2.90;77.10;;;;;;5045611;28;88124;-39
2022/11/27 12:59:29;;;;;;;;;;;2.90;77.10;;;;;;5043245;28;87710;-39
2022/11/27 13:01:58;;;;;;;;;;;2.90;77.00;;;;;;5043384;28;87130;-39
2022/11/27 13:04:34;;;;;;;;;;;2.90;77.10;;;;;;5043802;27;88367;-40
2022/11/27 13:07:05;;;;;;;;;;;2.90;77.20;;;;;;5043433;28;87689;-39
2022/11/27 13:09:38;;;;;;;;;;;2.90;77.20;;;;;;5043445;28;87080;-39
2022/11/27 13:12:04;;;;;;;;;;;2.90;77.30;;;;;;5043691;27;87252;-39
2022/11/27 13:14:30;;;;;;;;;;;2.90;77.20;;;;;;5043561;28;88353;-39
2022/11/27 13:17:03;;;;;;;;;;;2.90;77.10;;;;;;5043116;28;87110;-39
2022/11/27 13:19:32;;;;;;;;;;;2.90;77.20;;;;;;5045941;28;87202;-39
2022/11/27 13:21:58;;;;;;;;;;;2.90;77.20;;;;;;5042722;28;88000;-39
2022/11/27 13:24:25;;;;;;;;;;;2.90;77.20;;;;;;5043408;27;88329;-39
2022/11/27 13:26:56;;;;;;;;;;;2.90;77.10;;;;;;5042715;28;88151;-39
2022/11/27 13:29:24;;;;;;;;;;;2.90;77.00;;;;;;5043297;28;86893;-39
2022/11/27 13:31:53;;;;;;;;;;;3.00;77.20;;;;;;5042915;27;87348;-39
2022/11/27 13:34:22;;;;;;;;;;;2.90;77.10;;;;;;5042560;28;88108;-39
2022/11/27 13:36:54;;;;;;;;;;;3.00;77.30;;;;;;5043109;28;86980;-39
2022/11/27 13:39:31;;;;;;;;;;;2.90;77.10;;;;;;5043319;27;88780;-39
2022/11/27 13:41:59;;;;;;;;;;;3.00;77.00;;;;;;5045686;28;87178;-39
2022/11/27 13:44:25;;;;;;;;;;;3.00;77.10;;;;;;5042220;27;87384;-39
2022/11/27 13:46:53;;;;;;;;;;;3.00;77.00;;;;;;5042098;28;88858;-39
2022/11/27 13:49:27;;;;;;;;;;;3.00;77.00;;;;;;5041629;28;87054;-39
2022/11/27 13:52:13;;;;;;;;;;;3.00;77.30;;;;;;5042929;27;87458;-39
2022/11/27 13:54:49;;;;;;;;;;;3.00;77.20;;;;;;5041608;28;88185;-39
2022/11/27 13:57:16;;;;;;;;;;;3.00;77.20;;;;;;5042945;28;87456;-39
2022/11/27 13:59:53;;;;;;;;;;;3.00;77.30;;;;;;5042785;27;88662;-39
2022/11/27 14:02:19;;;;;;;;;;;3.00;77.20;;;;;;5042526;28;88361;-39
2022/11/27 14:04:49;;;;;;;;;;;3.00;77.00;;;;;;5046303;28;86562;-39
2022/11/27 14:07:15;;;;;;;;;;;3.00;77.20;;;;;;5042215;28;87546;-39
2022/11/27 14:09:45;;;;;;;;;;;3.00;77.40;;;;;;5042427;28;87078;-39
2022/11/27 14:12:14;;;;;;;;;;;3.00;77.30;;;;;;5042192;27;88001;-39
2022/11/27 14:14:40;;;;;;;;;;;3.00;77.40;;;;;;5042430;28;88084;-39
2022/11/27 14:17:21;;;;;;;;;;;3.00;77.50;;;;;;5042651;28;87126;-39
2022/11/27 14:19:57;;;;;;;;;;;3.00;77.30;;;;;;5042434;27;87345;-39
2022/11/27 14:22:31;;;;;;;;;;;3.00;77.40;;;;;;5042100;28;88128;-39
2022/11/27 14:24:57;;;;;;;;;;;3.00;77.40;;;;;;5042683;28;87128;-39
2022/11/27 14:27:24;;;;;;;;;;;3.00;77.30;;;;;;5045146;28;86847;-39
2022/11/27 14:29:50;;;;;;;;;;;3.00;77.50;;;;;;5042734;28;86430;-39
2022/11/27 14:32:17;;;;;;;;;;;3.00;77.60;;;;;;5042521;27;87080;-39
2022/11/27 14:34:43;;;;;;;;;;;3.00;77.40;;;;;;5041937;28;87293;-39
2022/11/27 14:37:20;;;;;;;;;;;3.00;77.30;;;;;;5041982;28;88183;-39